sensor_id;sensor_type;location;lat;lon;timestamp;temperature;humidity
25352;DHT22;13304;48.464;8.712;2022-11-14T00:01:57;8.40;86.10
25352;DHT22;13304;48.464;8.712;2022-11-14T00:04:22;8.40;86.10
25352;DHT22;13304;48.464;8.712;2022-11-14T00:06:48;8.40;86.50
25352;DHT22;13304;48.464;8.712;2022-11-14T00:09:13;8.30;86.40
25352;DHT22;13304;48.464;8.712;2022-11-14T00:11:39;8.30;86.40
25352;DHT22;13304;48.464;8.712;2022-11-14T00:14:04;8.30;86.30
25352;DHT22;13304;48.464;8.712;2022-11-14T00:16:30;8.30;86.30
25352;DHT22;13304;48.464;8.712;2022-11-14T00:18:56;8.40;86.40
25352;DHT22;13304;48.464;8.712;2022-11-14T00:21:21;8.40;86.30
25352;DHT22;13304;48.464;8.712;2022-11-14T00:23:47;8.40;86.10
25352;DHT22;13304;48.464;8.712;2022-11-14T00:26:12;8.40;86.10
25352;DHT22;13304;48.464;8.712;2022-11-14T00:28:38;8.30;86.40
25352;DHT22;13304;48.464;8.712;2022-11-14T00:31:03;8.30;86.40
25352;DHT22;13304;48.464;8.712;2022-11-14T00:33:29;8.30;86.40
25352;DHT22;13304;48.464;8.712;2022-11-14T00:35:55;8.30;86.80
25352;DHT22;13304;48.464;8.712;2022-11-14T00:38:21;8.30;87.00
25352;DHT22;13304;48.464;8.712;2022-11-14T00:40:47;8.30;86.70
25352;DHT22;13304;48.464;8.712;2022-11-14T00:43:12;8.30;87.10
25352;DHT22;13304;48.464;8.712;2022-11-14T00:45:38;8.30;86.80
25352;DHT22;13304;48.464;8.712;2022-11-14T00:48:03;8.30;87.00
25352;DHT22;13304;48.464;8.712;2022-11-14T00:50:29;8.30;86.90
25352;DHT22;13304;48.464;8.712;2022-11-14T00:52:54;8.30;86.80
25352;DHT22;13304;48.464;8.712;2022-11-14T00:55:20;8.30;86.90
25352;DHT22;13304;48.464;8.712;2022-11-14T00:57:46;8.30;86.90
25352;DHT22;13304;48.464;8.712;2022-11-14T01:00:12;8.30;86.60
25352;DHT22;13304;48.464;8.712;2022-11-14T01:02:37;8.30;86.60
25352;DHT22;13304;48.464;8.712;2022-11-14T01:05:03;8.30;86.50
25352;DHT22;13304;48.464;8.712;2022-11-14T01:07:29;8.30;86.80
25352;DHT22;13304;48.464;8.712;2022-11-14T01:09:54;8.30;87.00
25352;DHT22;13304;48.464;8.712;2022-11-14T01:12:20;8.30;86.80
25352;DHT22;13304;48.464;8.712;2022-11-14T01:14:46;8.30;86.60
25352;DHT22;13304;48.464;8.712;2022-11-14T01:17:11;8.30;87.30
25352;DHT22;13304;48.464;8.712;2022-11-14T01:19:37;8.30;86.60
25352;DHT22;13304;48.464;8.712;2022-11-14T01:22:02;8.30;86.70
25352;DHT22;13304;48.464;8.712;2022-11-14T01:24:28;8.30;86.90
25352;DHT22;13304;48.464;8.712;2022-11-14T01:26:55;8.40;86.50
25352;DHT22;13304;48.464;8.712;2022-11-14T01:29:21;8.30;86.80
25352;DHT22;13304;48.464;8.712;2022-11-14T01:31:47;8.30;86.80
25352;DHT22;13304;48.464;8.712;2022-11-14T01:34:12;8.30;87.00
25352;DHT22;13304;48.464;8.712;2022-11-14T01:36:38;8.30;87.30
25352;DHT22;13304;48.464;8.712;2022-11-14T01:39:03;8.30;87.30
25352;DHT22;13304;48.464;8.712;2022-11-14T01:41:29;8.30;87.50
25352;DHT22;13304;48.464;8.712;2022-11-14T01:43:54;8.30;87.60
25352;DHT22;13304;48.464;8.712;2022-11-14T01:46:30;8.20;87.50
25352;DHT22;13304;48.464;8.712;2022-11-14T01:49:02;8.20;87.60
25352;DHT22;13304;48.464;8.712;2022-11-14T01:51:33;8.20;87.60
25352;DHT22;13304;48.464;8.712;2022-11-14T01:54:02;8.20;87.70
25352;DHT22;13304;48.464;8.712;2022-11-14T01:56:29;8.20;87.50
25352;DHT22;13304;48.464;8.712;2022-11-14T01:58:57;8.20;87.80
25352;DHT22;13304;48.464;8.712;2022-11-14T02:01:24;8.20;87.80
25352;DHT22;13304;48.464;8.712;2022-11-14T02:03:50;8.20;87.80
25352;DHT22;13304;48.464;8.712;2022-11-14T02:06:17;8.30;87.80
25352;DHT22;13304;48.464;8.712;2022-11-14T02:08:43;8.30;87.70
25352;DHT22;13304;48.464;8.712;2022-11-14T02:11:10;8.20;87.80
25352;DHT22;13304;48.464;8.712;2022-11-14T02:13:36;8.20;87.70
25352;DHT22;13304;48.464;8.712;2022-11-14T02:16:02;8.20;87.90
25352;DHT22;13304;48.464;8.712;2022-11-14T02:18:27;8.30;87.90
25352;DHT22;13304;48.464;8.712;2022-11-14T02:20:53;8.30;87.70
25352;DHT22;13304;48.464;8.712;2022-11-14T02:23:29;8.30;87.90
25352;DHT22;13304;48.464;8.712;2022-11-14T02:25:54;8.30;88.00
25352;DHT22;13304;48.464;8.712;2022-11-14T02:28:20;8.20;88.00
25352;DHT22;13304;48.464;8.712;2022-11-14T02:30:46;8.30;87.70
25352;DHT22;13304;48.464;8.712;2022-11-14T02:33:13;8.30;87.90
25352;DHT22;13304;48.464;8.712;2022-11-14T02:35:38;8.30;87.90
25352;DHT22;13304;48.464;8.712;2022-11-14T02:38:04;8.30;87.70
25352;DHT22;13304;48.464;8.712;2022-11-14T02:40:30;8.30;87.70
25352;DHT22;13304;48.464;8.712;2022-11-14T02:42:56;8.30;88.00
25352;DHT22;13304;48.464;8.712;2022-11-14T02:45:22;8.30;87.80
25352;DHT22;13304;48.464;8.712;2022-11-14T02:47:47;8.30;88.00
25352;DHT22;13304;48.464;8.712;2022-11-14T02:50:13;8.30;88.00
25352;DHT22;13304;48.464;8.712;2022-11-14T02:52:39;8.30;87.90
25352;DHT22;13304;48.464;8.712;2022-11-14T02:55:04;8.30;87.70
25352;DHT22;13304;48.464;8.712;2022-11-14T02:57:30;8.30;87.60
25352;DHT22;13304;48.464;8.712;2022-11-14T02:59:55;8.40;87.60
25352;DHT22;13304;48.464;8.712;2022-11-14T03:02:21;8.40;87.70
25352;DHT22;13304;48.464;8.712;2022-11-14T03:04:46;8.40;87.50
25352;DHT22;13304;48.464;8.712;2022-11-14T03:07:12;8.40;87.50
25352;DHT22;13304;48.464;8.712;2022-11-14T03:09:38;8.40;87.60
25352;DHT22;13304;48.464;8.712;2022-11-14T03:12:03;8.50;87.50
25352;DHT22;13304;48.464;8.712;2022-11-14T03:14:29;8.50;87.50
25352;DHT22;13304;48.464;8.712;2022-11-14T03:16:55;8.50;87.70
25352;DHT22;13304;48.464;8.712;2022-11-14T03:19:21;8.50;87.50
25352;DHT22;13304;48.464;8.712;2022-11-14T03:21:46;8.50;87.50
25352;DHT22;13304;48.464;8.712;2022-11-14T03:24:12;8.50;87.60
25352;DHT22;13304;48.464;8.712;2022-11-14T03:26:37;8.50;87.40
25352;DHT22;13304;48.464;8.712;2022-11-14T03:29:04;8.50;87.30
25352;DHT22;13304;48.464;8.712;2022-11-14T03:31:29;8.50;87.50
25352;DHT22;13304;48.464;8.712;2022-11-14T03:33:55;8.50;87.30
25352;DHT22;13304;48.464;8.712;2022-11-14T03:36:20;8.50;87.40
25352;DHT22;13304;48.464;8.712;2022-11-14T03:38:46;8.40;87.80
25352;DHT22;13304;48.464;8.712;2022-11-14T03:41:12;8.40;87.50
25352;DHT22;13304;48.464;8.712;2022-11-14T03:43:37;8.40;87.80
25352;DHT22;13304;48.464;8.712;2022-11-14T03:46:03;8.40;87.50
25352;DHT22;13304;48.464;8.712;2022-11-14T03:48:29;8.40;87.70
25352;DHT22;13304;48.464;8.712;2022-11-14T03:50:55;8.40;88.10
25352;DHT22;13304;48.464;8.712;2022-11-14T03:53:21;8.40;87.80
25352;DHT22;13304;48.464;8.712;2022-11-14T03:55:47;8.40;87.80
25352;DHT22;13304;48.464;8.712;2022-11-14T03:58:12;8.40;87.60
25352;DHT22;13304;48.464;8.712;2022-11-14T04:00:38;8.40;88.00
25352;DHT22;13304;48.464;8.712;2022-11-14T04:03:04;8.40;87.80
25352;DHT22;13304;48.464;8.712;2022-11-14T04:05:29;8.40;87.70
25352;DHT22;13304;48.464;8.712;2022-11-14T04:07:55;8.40;87.60
25352;DHT22;13304;48.464;8.712;2022-11-14T04:10:21;8.40;87.60
25352;DHT22;13304;48.464;8.712;2022-11-14T04:12:47;8.50;87.70
25352;DHT22;13304;48.464;8.712;2022-11-14T04:15:13;8.50;87.90
25352;DHT22;13304;48.464;8.712;2022-11-14T04:17:39;8.50;87.90
25352;DHT22;13304;48.464;8.712;2022-11-14T04:20:04;8.50;87.80
25352;DHT22;13304;48.464;8.712;2022-11-14T04:22:30;8.50;87.60
25352;DHT22;13304;48.464;8.712;2022-11-14T04:24:55;8.50;87.50
25352;DHT22;13304;48.464;8.712;2022-11-14T04:27:21;8.50;87.40
25352;DHT22;13304;48.464;8.712;2022-11-14T04:29:48;8.50;87.30
25352;DHT22;13304;48.464;8.712;2022-11-14T04:32:13;8.50;87.30
25352;DHT22;13304;48.464;8.712;2022-11-14T04:34:39;8.50;87.40
25352;DHT22;13304;48.464;8.712;2022-11-14T04:37:04;8.60;87.20
25352;DHT22;13304;48.464;8.712;2022-11-14T04:39:30;8.50;87.00
25352;DHT22;13304;48.464;8.712;2022-11-14T04:41:55;8.50;86.90
25352;DHT22;13304;48.464;8.712;2022-11-14T04:44:21;8.50;86.80
25352;DHT22;13304;48.464;8.712;2022-11-14T04:46:46;8.40;87.10
25352;DHT22;13304;48.464;8.712;2022-11-14T04:49:12;8.40;87.20
25352;DHT22;13304;48.464;8.712;2022-11-14T04:51:37;8.40;87.00
25352;DHT22;13304;48.464;8.712;2022-11-14T04:54:03;8.40;87.00
25352;DHT22;13304;48.464;8.712;2022-11-14T04:56:29;8.40;87.10
25352;DHT22;13304;48.464;8.712;2022-11-14T04:58:54;8.40;87.10
25352;DHT22;13304;48.464;8.712;2022-11-14T05:01:22;8.30;86.90
25352;DHT22;13304;48.464;8.712;2022-11-14T05:03:47;8.30;86.90
25352;DHT22;13304;48.464;8.712;2022-11-14T05:06:13;8.30;86.90
25352;DHT22;13304;48.464;8.712;2022-11-14T05:08:38;8.40;86.90
25352;DHT22;13304;48.464;8.712;2022-11-14T05:11:04;8.40;86.80
25352;DHT22;13304;48.464;8.712;2022-11-14T05:13:29;8.40;86.70
25352;DHT22;13304;48.464;8.712;2022-11-14T05:15:58;8.40;86.60
25352;DHT22;13304;48.464;8.712;2022-11-14T05:18:24;8.40;86.60
25352;DHT22;13304;48.464;8.712;2022-11-14T05:20:50;8.40;86.60
25352;DHT22;13304;48.464;8.712;2022-11-14T05:23:19;8.40;86.50
25352;DHT22;13304;48.464;8.712;2022-11-14T05:25:45;8.30;86.50
25352;DHT22;13304;48.464;8.712;2022-11-14T05:28:11;8.30;86.50
25352;DHT22;13304;48.464;8.712;2022-11-14T05:30:37;8.30;86.40
25352;DHT22;13304;48.464;8.712;2022-11-14T05:33:02;8.30;86.20
25352;DHT22;13304;48.464;8.712;2022-11-14T05:35:28;8.30;86.10
25352;DHT22;13304;48.464;8.712;2022-11-14T05:37:54;8.20;85.90
25352;DHT22;13304;48.464;8.712;2022-11-14T05:40:19;8.20;85.80
25352;DHT22;13304;48.464;8.712;2022-11-14T05:42:45;8.20;85.80
25352;DHT22;13304;48.464;8.712;2022-11-14T05:45:10;8.10;85.70
25352;DHT22;13304;48.464;8.712;2022-11-14T05:47:36;8.10;86.40
25352;DHT22;13304;48.464;8.712;2022-11-14T05:50:02;8.10;85.90
25352;DHT22;13304;48.464;8.712;2022-11-14T05:52:27;8.00;86.00
25352;DHT22;13304;48.464;8.712;2022-11-14T05:54:53;8.00;86.20
25352;DHT22;13304;48.464;8.712;2022-11-14T05:57:18;7.90;86.20
25352;DHT22;13304;48.464;8.712;2022-11-14T05:59:44;7.90;86.50
25352;DHT22;13304;48.464;8.712;2022-11-14T06:02:09;7.90;86.40
25352;DHT22;13304;48.464;8.712;2022-11-14T06:04:35;7.90;86.50
25352;DHT22;13304;48.464;8.712;2022-11-14T06:07:01;7.90;87.30
25352;DHT22;13304;48.464;8.712;2022-11-14T06:09:26;7.90;87.80
25352;DHT22;13304;48.464;8.712;2022-11-14T06:11:52;7.90;87.60
25352;DHT22;13304;48.464;8.712;2022-11-14T06:14:17;7.80;87.30
25352;DHT22;13304;48.464;8.712;2022-11-14T06:16:43;7.90;87.70
25352;DHT22;13304;48.464;8.712;2022-11-14T06:19:08;7.90;88.10
25352;DHT22;13304;48.464;8.712;2022-11-14T06:21:34;7.90;87.90
25352;DHT22;13304;48.464;8.712;2022-11-14T06:23:59;7.90;87.80
25352;DHT22;13304;48.464;8.712;2022-11-14T06:26:26;8.00;87.70
25352;DHT22;13304;48.464;8.712;2022-11-14T06:28:54;8.00;87.70
25352;DHT22;13304;48.464;8.712;2022-11-14T06:31:20;8.00;87.80
25352;DHT22;13304;48.464;8.712;2022-11-14T06:33:45;8.00;87.80
25352;DHT22;13304;48.464;8.712;2022-11-14T06:36:11;8.00;87.70
25352;DHT22;13304;48.464;8.712;2022-11-14T06:38:38;8.10;87.80
25352;DHT22;13304;48.464;8.712;2022-11-14T06:41:07;8.10;88.10
25352;DHT22;13304;48.464;8.712;2022-11-14T06:43:34;8.10;88.30
25352;DHT22;13304;48.464;8.712;2022-11-14T06:46:00;8.10;88.90
25352;DHT22;13304;48.464;8.712;2022-11-14T06:48:25;8.20;88.60
25352;DHT22;13304;48.464;8.712;2022-11-14T06:50:51;8.20;88.20
25352;DHT22;13304;48.464;8.712;2022-11-14T06:53:17;8.20;88.30
25352;DHT22;13304;48.464;8.712;2022-11-14T06:55:50;8.30;88.50
25352;DHT22;13304;48.464;8.712;2022-11-14T06:58:16;8.30;88.60
25352;DHT22;13304;48.464;8.712;2022-11-14T07:00:41;8.40;88.50
25352;DHT22;13304;48.464;8.712;2022-11-14T07:03:07;8.40;88.40
25352;DHT22;13304;48.464;8.712;2022-11-14T07:05:32;8.40;88.40
25352;DHT22;13304;48.464;8.712;2022-11-14T07:07:58;8.50;88.60
25352;DHT22;13304;48.464;8.712;2022-11-14T07:10:23;8.50;88.60
25352;DHT22;13304;48.464;8.712;2022-11-14T07:12:49;8.60;88.70
25352;DHT22;13304;48.464;8.712;2022-11-14T07:15:15;8.60;88.80
25352;DHT22;13304;48.464;8.712;2022-11-14T07:17:40;8.70;88.80
25352;DHT22;13304;48.464;8.712;2022-11-14T07:20:06;8.80;88.90
25352;DHT22;13304;48.464;8.712;2022-11-14T07:22:32;8.80;88.90
25352;DHT22;13304;48.464;8.712;2022-11-14T07:24:57;8.90;88.90
25352;DHT22;13304;48.464;8.712;2022-11-14T07:27:23;8.90;89.00
25352;DHT22;13304;48.464;8.712;2022-11-14T07:29:49;9.00;89.00
25352;DHT22;13304;48.464;8.712;2022-11-14T07:32:14;9.00;89.40
25352;DHT22;13304;48.464;8.712;2022-11-14T07:34:40;9.00;89.30
25352;DHT22;13304;48.464;8.712;2022-11-14T07:37:05;9.10;89.40
25352;DHT22;13304;48.464;8.712;2022-11-14T07:39:31;9.10;89.50
25352;DHT22;13304;48.464;8.712;2022-11-14T07:41:56;9.20;89.40
25352;DHT22;13304;48.464;8.712;2022-11-14T07:44:22;9.20;89.40
25352;DHT22;13304;48.464;8.712;2022-11-14T07:46:48;9.20;89.30
25352;DHT22;13304;48.464;8.712;2022-11-14T07:49:14;9.30;89.30
25352;DHT22;13304;48.464;8.712;2022-11-14T07:51:40;9.30;90.00
25352;DHT22;13304;48.464;8.712;2022-11-14T07:54:05;9.40;89.10
25352;DHT22;13304;48.464;8.712;2022-11-14T07:56:31;9.40;89.20
25352;DHT22;13304;48.464;8.712;2022-11-14T07:58:56;9.50;90.00
25352;DHT22;13304;48.464;8.712;2022-11-14T08:01:22;9.50;89.20
25352;DHT22;13304;48.464;8.712;2022-11-14T08:03:48;9.50;89.10
25352;DHT22;13304;48.464;8.712;2022-11-14T08:06:14;9.60;89.20
25352;DHT22;13304;48.464;8.712;2022-11-14T08:08:39;9.60;89.50
25352;DHT22;13304;48.464;8.712;2022-11-14T08:11:05;9.70;89.40
25352;DHT22;13304;48.464;8.712;2022-11-14T08:13:31;9.70;89.40
25352;DHT22;13304;48.464;8.712;2022-11-14T08:15:57;9.80;89.60
25352;DHT22;13304;48.464;8.712;2022-11-14T08:18:24;9.80;89.60
25352;DHT22;13304;48.464;8.712;2022-11-14T08:20:50;9.80;89.60
25352;DHT22;13304;48.464;8.712;2022-11-14T08:23:15;9.90;89.90
25352;DHT22;13304;48.464;8.712;2022-11-14T08:25:41;9.90;89.70
25352;DHT22;13304;48.464;8.712;2022-11-14T08:28:07;10.00;89.90
25352;DHT22;13304;48.464;8.712;2022-11-14T08:30:32;10.00;89.80
25352;DHT22;13304;48.464;8.712;2022-11-14T08:33:02;10.00;89.90
25352;DHT22;13304;48.464;8.712;2022-11-14T08:35:28;10.10;90.00
25352;DHT22;13304;48.464;8.712;2022-11-14T08:37:53;10.10;89.70
25352;DHT22;13304;48.464;8.712;2022-11-14T08:40:19;10.10;90.00
25352;DHT22;13304;48.464;8.712;2022-11-14T08:42:44;10.10;89.80
25352;DHT22;13304;48.464;8.712;2022-11-14T08:45:10;10.20;89.90
25352;DHT22;13304;48.464;8.712;2022-11-14T08:47:35;10.20;89.90
25352;DHT22;13304;48.464;8.712;2022-11-14T08:50:01;10.20;89.90
25352;DHT22;13304;48.464;8.712;2022-11-14T08:52:27;10.20;90.00
25352;DHT22;13304;48.464;8.712;2022-11-14T08:54:52;10.30;90.00
25352;DHT22;13304;48.464;8.712;2022-11-14T08:57:18;10.30;90.00
25352;DHT22;13304;48.464;8.712;2022-11-14T08:59:43;10.30;90.10
25352;DHT22;13304;48.464;8.712;2022-11-14T09:02:09;10.40;90.00
25352;DHT22;13304;48.464;8.712;2022-11-14T09:04:35;10.40;90.10
25352;DHT22;13304;48.464;8.712;2022-11-14T09:07:01;10.40;90.10
25352;DHT22;13304;48.464;8.712;2022-11-14T09:09:26;10.50;90.10
25352;DHT22;13304;48.464;8.712;2022-11-14T09:11:52;10.50;90.10
25352;DHT22;13304;48.464;8.712;2022-11-14T09:14:17;10.60;90.10
25352;DHT22;13304;48.464;8.712;2022-11-14T09:16:43;10.60;90.50
25352;DHT22;13304;48.464;8.712;2022-11-14T09:19:11;10.60;90.40
25352;DHT22;13304;48.464;8.712;2022-11-14T09:21:36;10.70;90.20
25352;DHT22;13304;48.464;8.712;2022-11-14T09:24:02;10.70;90.40
25352;DHT22;13304;48.464;8.712;2022-11-14T09:26:27;10.70;90.50
25352;DHT22;13304;48.464;8.712;2022-11-14T09:28:53;10.70;90.50
25352;DHT22;13304;48.464;8.712;2022-11-14T09:31:18;10.80;90.80
25352;DHT22;13304;48.464;8.712;2022-11-14T09:33:44;10.80;90.60
25352;DHT22;13304;48.464;8.712;2022-11-14T09:36:10;10.80;90.70
25352;DHT22;13304;48.464;8.712;2022-11-14T09:38:40;10.80;90.70
25352;DHT22;13304;48.464;8.712;2022-11-14T09:46:23;10.90;90.90
25352;DHT22;13304;48.464;8.712;2022-11-14T09:48:50;11.00;90.70
25352;DHT22;13304;48.464;8.712;2022-11-14T09:53:46;11.00;90.70
25352;DHT22;13304;48.464;8.712;2022-11-14T09:56:12;11.00;90.60
25352;DHT22;13304;48.464;8.712;2022-11-14T09:58:39;11.10;90.70
25352;DHT22;13304;48.464;8.712;2022-11-14T10:01:05;11.10;90.70
25352;DHT22;13304;48.464;8.712;2022-11-14T10:03:41;11.10;90.80
25352;DHT22;13304;48.464;8.712;2022-11-14T10:11:07;11.10;90.60
25352;DHT22;13304;48.464;8.712;2022-11-14T10:13:44;11.10;90.40
25352;DHT22;13304;48.464;8.712;2022-11-14T10:16:35;11.10;90.60
25352;DHT22;13304;48.464;8.712;2022-11-14T10:24:22;11.20;90.90
25352;DHT22;13304;48.464;8.712;2022-11-14T10:27:00;11.20;90.90
25352;DHT22;13304;48.464;8.712;2022-11-14T10:32:04;11.30;90.90
25352;DHT22;13304;48.464;8.712;2022-11-14T10:34:34;11.30;90.70
25352;DHT22;13304;48.464;8.712;2022-11-14T10:37:10;11.30;90.70
25352;DHT22;13304;48.464;8.712;2022-11-14T10:39:42;11.30;90.70
25352;DHT22;13304;48.464;8.712;2022-11-14T10:42:10;11.30;90.70
25352;DHT22;13304;48.464;8.712;2022-11-14T10:44:39;11.30;90.60
25352;DHT22;13304;48.464;8.712;2022-11-14T10:47:09;11.40;90.50
25352;DHT22;13304;48.464;8.712;2022-11-14T10:49:36;11.40;90.40
25352;DHT22;13304;48.464;8.712;2022-11-14T10:52:21;11.40;90.30
25352;DHT22;13304;48.464;8.712;2022-11-14T10:54:52;11.50;90.30
25352;DHT22;13304;48.464;8.712;2022-11-14T10:57:21;11.50;90.20
25352;DHT22;13304;48.464;8.712;2022-11-14T10:59:46;11.50;90.20
25352;DHT22;13304;48.464;8.712;2022-11-14T11:02:15;11.50;90.20
25352;DHT22;13304;48.464;8.712;2022-11-14T11:04:42;11.50;90.10
25352;DHT22;13304;48.464;8.712;2022-11-14T11:09:34;11.60;90.10
25352;DHT22;13304;48.464;8.712;2022-11-14T11:12:20;11.60;90.10
25352;DHT22;13304;48.464;8.712;2022-11-14T11:14:47;11.70;90.10
25352;DHT22;13304;48.464;8.712;2022-11-14T11:17:14;11.70;90.10
25352;DHT22;13304;48.464;8.712;2022-11-14T11:19:40;11.70;90.10
25352;DHT22;13304;48.464;8.712;2022-11-14T11:24:47;11.70;90.10
25352;DHT22;13304;48.464;8.712;2022-11-14T11:29:39;11.80;90.00
25352;DHT22;13304;48.464;8.712;2022-11-14T11:32:06;11.80;90.00
25352;DHT22;13304;48.464;8.712;2022-11-14T11:34:32;11.80;89.90
25352;DHT22;13304;48.464;8.712;2022-11-14T11:37:19;11.80;90.00
25352;DHT22;13304;48.464;8.712;2022-11-14T11:39:45;11.90;89.80
25352;DHT22;13304;48.464;8.712;2022-11-14T11:42:14;11.90;89.90
25352;DHT22;13304;48.464;8.712;2022-11-14T11:44:45;11.90;90.00
25352;DHT22;13304;48.464;8.712;2022-11-14T11:47:13;12.00;90.00
25352;DHT22;13304;48.464;8.712;2022-11-14T11:49:47;12.00;90.10
25352;DHT22;13304;48.464;8.712;2022-11-14T11:52:32;12.10;90.40
25352;DHT22;13304;48.464;8.712;2022-11-14T11:55:01;12.10;90.30
25352;DHT22;13304;48.464;8.712;2022-11-14T11:57:35;12.30;90.50
25352;DHT22;13304;48.464;8.712;2022-11-14T12:02:31;12.50;90.10
25352;DHT22;13304;48.464;8.712;2022-11-14T12:04:57;12.50;89.80
25352;DHT22;13304;48.464;8.712;2022-11-14T12:07:38;12.60;89.00
25352;DHT22;13304;48.464;8.712;2022-11-14T12:10:21;12.70;89.50
25352;DHT22;13304;48.464;8.712;2022-11-14T12:17:53;12.90;88.20
25352;DHT22;13304;48.464;8.712;2022-11-14T12:23:02;12.90;87.40
25352;DHT22;13304;48.464;8.712;2022-11-14T12:25:39;13.00;87.20
25352;DHT22;13304;48.464;8.712;2022-11-14T12:30:51;13.00;87.10
25352;DHT22;13304;48.464;8.712;2022-11-14T12:33:24;13.00;86.60
25352;DHT22;13304;48.464;8.712;2022-11-14T12:35:52;13.10;86.70
25352;DHT22;13304;48.464;8.712;2022-11-14T12:38:19;13.10;87.70
25352;DHT22;13304;48.464;8.712;2022-11-14T12:40:53;13.20;87.40
25352;DHT22;13304;48.464;8.712;2022-11-14T12:43:25;13.20;87.50
25352;DHT22;13304;48.464;8.712;2022-11-14T12:50:46;13.40;87.30
25352;DHT22;13304;48.464;8.712;2022-11-14T13:06:45;13.60;83.40
25352;DHT22;13304;48.464;8.712;2022-11-14T13:12:17;13.60;83.20
25352;DHT22;13304;48.464;8.712;2022-11-14T13:15:20;13.60;83.80
25352;DHT22;13304;48.464;8.712;2022-11-14T13:18:13;13.60;83.20
25352;DHT22;13304;48.464;8.712;2022-11-14T13:21:01;13.60;84.40
25352;DHT22;13304;48.464;8.712;2022-11-14T13:28:42;13.50;83.20
25352;DHT22;13304;48.464;8.712;2022-11-14T13:33:54;13.50;82.50
25352;DHT22;13304;48.464;8.712;2022-11-14T13:36:33;13.40;82.20
25352;DHT22;13304;48.464;8.712;2022-11-14T13:39:12;13.40;82.80
25352;DHT22;13304;48.464;8.712;2022-11-14T13:41:48;13.30;83.20
25352;DHT22;13304;48.464;8.712;2022-11-14T13:47:08;13.30;83.50
25352;DHT22;13304;48.464;8.712;2022-11-14T13:52:13;13.20;83.90
25352;DHT22;13304;48.464;8.712;2022-11-14T13:54:48;13.20;84.00
25352;DHT22;13304;48.464;8.712;2022-11-14T14:00:29;13.20;84.10
25352;DHT22;13304;48.464;8.712;2022-11-14T14:15:26;13.30;83.50
25352;DHT22;13304;48.464;8.712;2022-11-14T14:20:30;13.30;83.40
25352;DHT22;13304;48.464;8.712;2022-11-14T14:23:01;13.30;83.00
25352;DHT22;13304;48.464;8.712;2022-11-14T14:28:20;13.30;82.70
25352;DHT22;13304;48.464;8.712;2022-11-14T14:33:39;13.30;83.40
25352;DHT22;13304;48.464;8.712;2022-11-14T14:36:15;13.30;83.30
25352;DHT22;13304;48.464;8.712;2022-11-14T14:38:40;13.30;83.70
25352;DHT22;13304;48.464;8.712;2022-11-14T14:41:06;13.30;83.20
25352;DHT22;13304;48.464;8.712;2022-11-14T14:43:32;13.20;83.20
25352;DHT22;13304;48.464;8.712;2022-11-14T14:45:58;13.20;83.60
25352;DHT22;13304;48.464;8.712;2022-11-14T14:48:24;13.20;84.00
25352;DHT22;13304;48.464;8.712;2022-11-14T14:50:52;13.30;84.30
25352;DHT22;13304;48.464;8.712;2022-11-14T14:53:19;13.30;83.50
25352;DHT22;13304;48.464;8.712;2022-11-14T14:55:55;13.30;84.00
25352;DHT22;13304;48.464;8.712;2022-11-14T15:00:53;13.30;84.30
25352;DHT22;13304;48.464;8.712;2022-11-14T15:03:19;13.30;83.80
25352;DHT22;13304;48.464;8.712;2022-11-14T15:05:45;13.30;83.80
25352;DHT22;13304;48.464;8.712;2022-11-14T15:08:11;13.30;84.20
25352;DHT22;13304;48.464;8.712;2022-11-14T15:10:38;13.30;83.30
25352;DHT22;13304;48.464;8.712;2022-11-14T15:13:05;13.30;83.50
25352;DHT22;13304;48.464;8.712;2022-11-14T15:15:30;13.30;83.30
25352;DHT22;13304;48.464;8.712;2022-11-14T15:17:57;13.20;83.50
25352;DHT22;13304;48.464;8.712;2022-11-14T15:20:26;13.20;83.60
25352;DHT22;13304;48.464;8.712;2022-11-14T15:23:01;13.20;83.60
25352;DHT22;13304;48.464;8.712;2022-11-14T15:25:27;13.20;83.80
25352;DHT22;13304;48.464;8.712;2022-11-14T15:27:52;13.20;83.80
25352;DHT22;13304;48.464;8.712;2022-11-14T15:30:20;13.10;83.60
25352;DHT22;13304;48.464;8.712;2022-11-14T15:32:46;13.10;83.70
25352;DHT22;13304;48.464;8.712;2022-11-14T15:38:00;13.00;83.70
25352;DHT22;13304;48.464;8.712;2022-11-14T15:40:26;13.00;83.60
25352;DHT22;13304;48.464;8.712;2022-11-14T15:42:51;13.00;83.90
25352;DHT22;13304;48.464;8.712;2022-11-14T15:45:27;12.90;84.00
25352;DHT22;13304;48.464;8.712;2022-11-14T15:47:57;12.90;83.90
25352;DHT22;13304;48.464;8.712;2022-11-14T15:50:27;12.90;84.00
25352;DHT22;13304;48.464;8.712;2022-11-14T15:52:55;12.90;84.30
25352;DHT22;13304;48.464;8.712;2022-11-14T15:55:23;12.80;84.20
25352;DHT22;13304;48.464;8.712;2022-11-14T15:57:48;12.80;84.20
25352;DHT22;13304;48.464;8.712;2022-11-14T16:00:15;12.80;84.20
25352;DHT22;13304;48.464;8.712;2022-11-14T16:02:42;12.70;84.30
25352;DHT22;13304;48.464;8.712;2022-11-14T16:05:10;12.70;84.40
25352;DHT22;13304;48.464;8.712;2022-11-14T16:07:36;12.70;84.50
25352;DHT22;13304;48.464;8.712;2022-11-14T16:10:02;12.70;84.60
25352;DHT22;13304;48.464;8.712;2022-11-14T16:12:27;12.70;84.60
25352;DHT22;13304;48.464;8.712;2022-11-14T16:14:53;12.60;84.60
25352;DHT22;13304;48.464;8.712;2022-11-14T16:17:19;12.60;84.70
25352;DHT22;13304;48.464;8.712;2022-11-14T16:19:44;12.60;84.90
25352;DHT22;13304;48.464;8.712;2022-11-14T16:22:15;12.50;84.90
25352;DHT22;13304;48.464;8.712;2022-11-14T16:24:41;12.50;85.00
25352;DHT22;13304;48.464;8.712;2022-11-14T16:27:06;12.50;85.00
25352;DHT22;13304;48.464;8.712;2022-11-14T16:29:32;12.50;85.10
25352;DHT22;13304;48.464;8.712;2022-11-14T16:31:58;12.50;85.20
25352;DHT22;13304;48.464;8.712;2022-11-14T16:34:24;12.50;85.30
25352;DHT22;13304;48.464;8.712;2022-11-14T16:36:59;12.50;85.40
25352;DHT22;13304;48.464;8.712;2022-11-14T16:39:25;12.50;85.40
25352;DHT22;13304;48.464;8.712;2022-11-14T16:41:51;12.50;85.40
25352;DHT22;13304;48.464;8.712;2022-11-14T16:44:16;12.50;85.50
25352;DHT22;13304;48.464;8.712;2022-11-14T16:46:43;12.50;85.50
25352;DHT22;13304;48.464;8.712;2022-11-14T16:49:13;12.50;85.50
25352;DHT22;13304;48.464;8.712;2022-11-14T16:51:39;12.50;85.50
25352;DHT22;13304;48.464;8.712;2022-11-14T16:54:06;12.60;85.60
25352;DHT22;13304;48.464;8.712;2022-11-14T16:56:31;12.60;85.50
25352;DHT22;13304;48.464;8.712;2022-11-14T16:58:57;12.60;85.60
25352;DHT22;13304;48.464;8.712;2022-11-14T17:01:23;12.60;85.50
25352;DHT22;13304;48.464;8.712;2022-11-14T17:03:48;12.60;85.60
25352;DHT22;13304;48.464;8.712;2022-11-14T17:06:14;12.60;85.50
25352;DHT22;13304;48.464;8.712;2022-11-14T17:08:39;12.60;85.60
25352;DHT22;13304;48.464;8.712;2022-11-14T17:11:06;12.60;85.50
25352;DHT22;13304;48.464;8.712;2022-11-14T17:13:32;12.60;85.60
25352;DHT22;13304;48.464;8.712;2022-11-14T17:16:02;12.60;85.60
25352;DHT22;13304;48.464;8.712;2022-11-14T17:18:27;12.60;85.70
25352;DHT22;13304;48.464;8.712;2022-11-14T17:20:53;12.60;85.70
25352;DHT22;13304;48.464;8.712;2022-11-14T17:23:18;12.60;85.70
25352;DHT22;13304;48.464;8.712;2022-11-14T17:25:44;12.60;85.70